Flinter Rose — PBUB — position and weather

sailwx.info

Track history (hours):
 
Tides and Currents Weather Stations Pressure Air Temp Water Temp Dewpoint Dewpoint Depression Visibility Wind Speed Wind Dir Waves Ship Positions

Flinter Rose

Last reported at 2015-Mar-28 15:32 UTC. Time now 2015-Mar-28 16:03 UTC.
Position N 51°06' E 003°45'.

Length 101 m; draft 5.5 m.

Type: Cargo ship. MMSI: 246227000.

Date/timePositionNaut miles runAvg speedWind from/ knotsBaromVisibWave heightAir tempDewpointWater temp
2015-Mar-28 15:32N 51°06' E 003°45'0 0.0
2015-Mar-28 14:32N 51°06' E 003°45'0 0.0
2015-Mar-28 13:32N 51°06' E 003°45'0 0.0
2015-Mar-28 12:32N 51°06' E 003°45'0 0.0
2015-Mar-28 11:32N 51°06' E 003°45'0 0.0
2015-Mar-28 10:32N 51°06' E 003°45'0 0.0
2015-Mar-28 09:32N 51°06' E 003°45'0 0.0
2015-Mar-28 08:32N 51°06' E 003°45'0 0.0
2015-Mar-28 07:29N 51°06' E 003°45'0 0.0
2015-Mar-28 06:33N 51°06' E 003°45'4 3.9
2015-Mar-28 05:33N 51°09' E 003°47'7 6.7
2015-Mar-28 04:34N 51°16' E 003°50'4 3.9
2015-Mar-28 03:33N 51°20' E 003°49'6 5.8
2015-Mar-28 02:33N 51°24' E 003°42'6 5.9
2015-Mar-28 01:33N 51°26' E 003°34'6 6.4
2015-Mar-28 00:34N 51°31' E 003°27'1110.2
2015-Mar-27 23:28N 51°40' E 003°18'12 8.6
2015-Mar-27 22:05N 51°52' E 003°18'110 9.3
2015-Mar-27 10:19N 53°29' E 004°42'6 7.4
2015-Mar-27 09:33N 53°32' E 004°51'7 6.9
2015-Mar-27 08:33N 53°34' E 005°02'7 7.1
2015-Mar-27 07:34N 53°36' E 005°13'8 7.9
2015-Mar-27 06:33N 53°39' E 005°26'9 9.4
2015-Mar-27 05:34N 53°42' E 005°41'10 9.8
2015-Mar-27 04:34N 53°45' E 005°56'49 9.3
2015-Mar-26 23:15N 53°58' E 007°17'710.0
2015-Mar-26 22:33N 53°60' E 007°29'1110.9
2015-Mar-26 21:33N 54°02' E 007°47'1211.8
2015-Mar-26 20:34N 54°01' E 008°07'1313.3
2015-Mar-26 19:33N 53°59' E 008°29'1212.0
2015-Mar-26 18:34N 53°51' E 008°45'10 9.7
2015-Mar-26 17:33N 53°52' E 009°02'5 5.1
2015-Mar-26 16:33N 53°54' E 009°09'1 0.8
2015-Mar-26 15:33N 53°55' E 009°10'8 8.3
2015-Mar-26 14:33N 54°02' E 009°18'9 8.1
2015-Mar-26 13:27N 54°10' E 009°25'8 8.4
2015-Mar-26 12:31N 54°14' E 009°36'5 4.7
2015-Mar-26 11:33N 54°18' E 009°40'5 4.5
2015-Mar-26 10:33N 54°21' E 009°46'7 7.0
2015-Mar-26 09:33N 54°21' E 009°58'6 5.6
2015-Mar-26 08:33N 54°22' E 010°07'2 1.7
2015-Mar-26 07:33N 54°22' E 010°10'10 9.7
2015-Mar-26 06:33N 54°30' E 010°19'1010.3
2015-Mar-26 05:33N 54°34' E 010°35'1110.6
2015-Mar-26 04:33N 54°35' E 010°53'1211.5
2015-Mar-26 03:33N 54°35' E 011°13'1212.2
2015-Mar-26 02:33N 54°30' E 011°32'1111.5
2015-Mar-26 01:33N 54°26' E 011°51'1111.1
2015-Mar-26 00:33N 54°28' E 012°10'1110.8
2015-Mar-25 23:33N 54°38' E 012°17'1111.0
2015-Mar-25 22:32N 54°44' E 012°33'2210.7
2015-Mar-25 20:30N 54°53' E 013°07'1110.7
2015-Mar-25 19:26N 54°56' E 013°26'9 9.9
2015-Mar-25 18:33N 54°59' E 013°40'1010.3
2015-Mar-25 17:33N 55°03' E 013°57'1010.0
2015-Mar-25 16:33N 55°09' E 014°11'1010.3
2015-Mar-25 15:33N 55°17' E 014°22'1010.4
2015-Mar-25 14:33N 55°25' E 014°34'1010.5
2015-Mar-25 13:33N 55°31' E 014°50'1010.4
2015-Mar-25 12:33N 55°36' E 015°05'1110.5
2015-Mar-25 11:33N 55°42' E 015°22'  
2015-Mar-18 23:30N 55°41' E 016°01'1010.6
2015-Mar-18 22:33N 55°38' E 015°44'1010.5
2015-Mar-18 21:33N 55°35' E 015°26'1010.1
2015-Mar-18 20:33N 55°31' E 015°10'1210.3
2015-Mar-18 19:25N 55°27' E 014°51'910.4
2015-Mar-18 18:34N 55°22' E 014°38'1110.3
2015-Mar-18 17:28N 55°13' E 014°25'910.4
2015-Mar-18 16:34N 55°06' E 014°15'  
Track history (hours):
 
Tides and Currents Weather Stations Pressure Air Temp Water Temp Dewpoint Dewpoint Depression Visibility Wind Speed Wind Dir Waves Ship Positions

Flinter Rose

Last reported at 2015-Mar-28 15:32 UTC. Time now 2015-Mar-28 16:03 UTC.
Position N 51°06' E 003°45'.

Length 101 m; draft 5.5 m.

Type: Cargo ship. MMSI: 246227000.

Date/timePositionNaut miles runAvg speedWind from/ knotsBaromVisibWave heightAir tempDewpointWater temp
2015-Mar-28 15:32N 51°06' E 003°45'0 0.0
2015-Mar-28 14:32N 51°06' E 003°45'0 0.0
2015-Mar-28 13:32N 51°06' E 003°45'0 0.0
2015-Mar-28 12:32N 51°06' E 003°45'0 0.0
2015-Mar-28 11:32N 51°06' E 003°45'0 0.0
2015-Mar-28 10:32N 51°06' E 003°45'0 0.0
2015-Mar-28 09:32N 51°06' E 003°45'0 0.0
2015-Mar-28 08:32N 51°06' E 003°45'0 0.0
2015-Mar-28 07:29N 51°06' E 003°45'0 0.0
2015-Mar-28 06:33N 51°06' E 003°45'4 3.9
2015-Mar-28 05:33N 51°09' E 003°47'7 6.7
2015-Mar-28 04:34N 51°16' E 003°50'4 3.9
2015-Mar-28 03:33N 51°20' E 003°49'6 5.8
2015-Mar-28 02:33N 51°24' E 003°42'6 5.9
2015-Mar-28 01:33N 51°26' E 003°34'6 6.4
2015-Mar-28 00:34N 51°31' E 003°27'1110.2
2015-Mar-27 23:28N 51°40' E 003°18'12 8.6
2015-Mar-27 22:05N 51°52' E 003°18'110 9.3
2015-Mar-27 10:19N 53°29' E 004°42'6 7.4
2015-Mar-27 09:33N 53°32' E 004°51'7 6.9
2015-Mar-27 08:33N 53°34' E 005°02'7 7.1
2015-Mar-27 07:34N 53°36' E 005°13'8 7.9
2015-Mar-27 06:33N 53°39' E 005°26'9 9.4
2015-Mar-27 05:34N 53°42' E 005°41'10 9.8
2015-Mar-27 04:34N 53°45' E 005°56'49 9.3
2015-Mar-26 23:15N 53°58' E 007°17'710.0
2015-Mar-26 22:33N 53°60' E 007°29'1110.9
2015-Mar-26 21:33N 54°02' E 007°47'1211.8
2015-Mar-26 20:34N 54°01' E 008°07'1313.3
2015-Mar-26 19:33N 53°59' E 008°29'1212.0
2015-Mar-26 18:34N 53°51' E 008°45'10 9.7
2015-Mar-26 17:33N 53°52' E 009°02'5 5.1
2015-Mar-26 16:33N 53°54' E 009°09'1 0.8
2015-Mar-26 15:33N 53°55' E 009°10'8 8.3
2015-Mar-26 14:33N 54°02' E 009°18'9 8.1
2015-Mar-26 13:27N 54°10' E 009°25'8 8.4
2015-Mar-26 12:31N 54°14' E 009°36'5 4.7
2015-Mar-26 11:33N 54°18' E 009°40'5 4.5
2015-Mar-26 10:33N 54°21' E 009°46'7 7.0
2015-Mar-26 09:33N 54°21' E 009°58'6 5.6
2015-Mar-26 08:33N 54°22' E 010°07'2 1.7
2015-Mar-26 07:33N 54°22' E 010°10'10 9.7
2015-Mar-26 06:33N 54°30' E 010°19'1010.3
2015-Mar-26 05:33N 54°34' E 010°35'1110.6
2015-Mar-26 04:33N 54°35' E 010°53'1211.5
2015-Mar-26 03:33N 54°35' E 011°13'1212.2
2015-Mar-26 02:33N 54°30' E 011°32'1111.5
2015-Mar-26 01:33N 54°26' E 011°51'1111.1
2015-Mar-26 00:33N 54°28' E 012°10'1110.8
2015-Mar-25 23:33N 54°38' E 012°17'1111.0
2015-Mar-25 22:32N 54°44' E 012°33'2210.7
2015-Mar-25 20:30N 54°53' E 013°07'1110.7
2015-Mar-25 19:26N 54°56' E 013°26'9 9.9
2015-Mar-25 18:33N 54°59' E 013°40'1010.3
2015-Mar-25 17:33N 55°03' E 013°57'1010.0
2015-Mar-25 16:33N 55°09' E 014°11'1010.3
2015-Mar-25 15:33N 55°17' E 014°22'1010.4
2015-Mar-25 14:33N 55°25' E 014°34'1010.5
2015-Mar-25 13:33N 55°31' E 014°50'1010.4
2015-Mar-25 12:33N 55°36' E 015°05'1110.5
2015-Mar-25 11:33N 55°42' E 015°22'  
2015-Mar-18 23:30N 55°41' E 016°01'1010.6
2015-Mar-18 22:33N 55°38' E 015°44'1010.5
2015-Mar-18 21:33N 55°35' E 015°26'1010.1
2015-Mar-18 20:33N 55°31' E 015°10'1210.3
2015-Mar-18 19:25N 55°27' E 014°51'910.4
2015-Mar-18 18:34N 55°22' E 014°38'1110.3
2015-Mar-18 17:28N 55°13' E 014°25'910.4
2015-Mar-18 16:34N 55°06' E 014°15'  

Dump ship's entire track history